Terminal Aerodrome Forecast
Issued by NWS

Home | Current Version | Previous Version | Text Only | Print | Product List | Glossary On
Versions: 1 2 3 4 5 6 7 8 9 10 11 12 13
000
FTUS42 TJSJ 281720
TAFIST
TAF
TIST 281720Z 2818/2918 08013G22KT P6SM FEW030 SCT040
     FM290400 09022KT P6SM VCTS SCT025CB SCT050
     FM291300 09017G30KT P6SM FEW030=

USA.gov is the U.S. government's official web portal to all federal, state and local government web resources and services.